Bookmark and Share
Track history (hours):
 

Nautilus

Last reported at 2014-Apr-10 07:33 UTC. Time now 2014-Apr-17 18:37 UTC.
Position N 36°45' E 023°29'.

Length 108 m; draft 3.4 m.

Type: Cargo ship. MMSI: 273319030.

NotesDate/timePositionNaut miles runAvg speedWind from/ knotsBaromVisibWave heightAir tempDewpointWater temp
2014-Apr-10 07:33N 36°45' E 023°29'7 6.5
2014-Apr-10 06:29N 36°49' E 023°36'7 6.8
2014-Apr-10 05:31N 36°54' E 023°42'7 6.9
2014-Apr-10 04:33N 36°58' E 023°49'7 7.1
2014-Apr-10 03:33N 37°01' E 023°56'41 6.8
2014-Apr-09 21:33N 37°19' E 024°42'7 7.1
2014-Apr-09 20:33N 37°21' E 024°51'7 6.7
2014-Apr-09 19:33N 37°23' E 024°59'2 1.5
2014-Apr-09 18:32N 37°25' E 024°59'0 0.0
2014-Apr-09 17:34N 37°25' E 024°59'2 2.0
2014-Apr-09 16:33N 37°25' E 025°01'7 7.2
2014-Apr-09 15:33N 37°24' E 025°10'1 1.4
2014-Apr-09 14:32N 37°24' E 025°12'0 0.0
2014-Apr-09 13:33N 37°24' E 025°12'0 0.0
2014-Apr-09 12:33N 37°24' E 025°12'0 0.0
2014-Apr-09 11:34N 37°24' E 025°12'0 0.0
2014-Apr-09 10:33N 37°24' E 025°12'0 0.0
2014-Apr-09 09:33N 37°24' E 025°12'0 0.0
2014-Apr-09 08:33N 37°24' E 025°12'0 0.0
2014-Apr-09 07:33N 37°24' E 025°12'0 0.0
2014-Apr-09 06:33N 37°24' E 025°12'0 0.0
2014-Apr-09 05:33N 37°24' E 025°12'3 2.5
2014-Apr-09 04:33N 37°26' E 025°11'7 6.8
2014-Apr-09 03:33N 37°32' E 025°16'7 6.9
2014-Apr-09 02:33N 37°39' E 025°18'7 7.2
2014-Apr-09 01:33N 37°46' E 025°19'30 7.4
2014-Apr-08 21:33N 38°15' E 025°25'7 7.4
2014-Apr-08 20:33N 38°22' E 025°26'22 7.4
2014-Apr-08 17:33N 38°44' E 025°32'  

Dump ship's entire track history

sailing weather and tide predictions

Nautilus — UBJK — position and weather